Noshahr, Iran
Current Conditions -  °F | °C
As of 2:00 AM on Tuesday 23 Dec 2014 (Local Time) from OINN Reporting Station
Clear Clear  
Wind Chill: 42°   Ceiling: Unl
Heat Index: 45°   Visibility: 6mi
Dew Point: 41°   Wind: 5mph
Humidity: 87%   Direction: 210°SSW
Pressure: 29.97"   Gusts: NA
Location:  36.65°N, 51.5°E
Report Text: OINN 222300Z 21004KT CAVOK 07/05 Q1015
Loading
Personal Weather Stations






























Interactive Weather Map New forecast layout! Learn more

10-Day Weather Forecast

Advertisements
Track Severe Weather on mobile